Time;durP1;ratioP1;P1;durP2;ratioP2;P2;SDS_P1;SDS_P2;PMS_P1;PMS_P2;Temp;Humidity;BMP_temperature;BMP_pressure;BME280_temperature;BME280_humidity;BME280_pressure;Samples;Min_cycle;Max_cycle;Signal;HPM_P1;HPM_P2
2023/09/30 00:01:01;;;;;;;1.33;0.47;;;;;;;;;;5049549;28;20040;-62
2023/09/30 00:03:28;;;;;;;1.60;0.73;;;;;;;;;;5050042;28;20048;-62
2023/09/30 00:05:54;;;;;;;0.95;0.50;;;;;;;;;;5053459;28;20425;-62
2023/09/30 00:08:20;;;;;;;0.50;0.50;;;;;;;;;;5055148;28;20037;-62
2023/09/30 00:10:46;;;;;;;0.80;0.47;;;;;;;;;;5055548;28;20724;-62
2023/09/30 00:13:13;;;;;;;0.45;0.45;;;;;;;;;;5053180;28;20052;-62
2023/09/30 00:15:40;;;;;;;1.33;0.75;;;;;;;;;;5053713;28;20035;-62
2023/09/30 00:18:06;;;;;;;0.80;0.63;;;;;;;;;;5054392;28;20605;-63
2023/09/30 00:20:32;;;;;;;1.05;0.45;;;;;;;;;;5050766;28;20715;-62
2023/09/30 00:22:58;;;;;;;0.65;0.40;;;;;;;;;;5049257;28;20139;-62
2023/09/30 00:25:25;;;;;;;1.38;0.40;;;;;;;;;;5052847;28;20657;-62
2023/09/30 00:27:51;;;;;;;0.70;0.50;;;;;;;;;;5064489;28;20047;-62
2023/09/30 00:30:17;;;;;;;0.88;0.70;;;;;;;;;;5057275;28;20033;-62
2023/09/30 00:32:43;;;;;;;1.85;0.30;;;;;;;;;;5054225;28;20439;-62
2023/09/30 00:35:11;;;;;;;0.28;0.25;;;;;;;;;;5056089;28;20041;-62
2023/09/30 00:37:39;;;;;;;1.15;0.50;;;;;;;;;;5051446;28;20048;-62
2023/09/30 00:40:06;;;;;;;1.38;0.35;;;;;;;;;;5054846;28;20143;-62
2023/09/30 00:42:32;;;;;;;2.30;1.00;;;;;;;;;;5053019;28;20428;-62
2023/09/30 00:44:58;;;;;;;0.63;0.50;;;;;;;;;;5050742;28;20500;-62
2023/09/30 00:47:24;;;;;;;2.47;0.73;;;;;;;;;;5056469;28;20400;-62
2023/09/30 00:49:51;;;;;;;1.63;0.80;;;;;;;;;;5059078;28;20036;-62
2023/09/30 00:52:17;;;;;;;0.52;0.50;;;;;;;;;;5054039;28;20445;-62
2023/09/30 00:54:44;;;;;;;1.10;0.50;;;;;;;;;;5049260;28;20075;-62
2023/09/30 00:57:10;;;;;;;2.05;0.52;;;;;;;;;;5018933;28;1078273;-63
2023/09/30 00:59:36;;;;;;;0.50;0.40;;;;;;;;;;5060941;28;20468;-62
2023/09/30 01:02:05;;;;;;;0.63;0.40;;;;;;;;;;5050460;28;20056;-62
2023/09/30 01:04:31;;;;;;;0.98;0.45;;;;;;;;;;5053481;28;20120;-62
2023/09/30 01:06:57;;;;;;;1.08;0.30;;;;;;;;;;5051193;28;20504;-62
2023/09/30 01:09:24;;;;;;;0.93;0.38;;;;;;;;;;5053639;28;20037;-62
2023/09/30 01:11:51;;;;;;;1.20;0.70;;;;;;;;;;5049489;28;20124;-62
2023/09/30 01:14:30;;;;;;;0.60;0.20;;;;;;;;;;5052968;28;20051;-63
2023/09/30 01:16:57;;;;;;;0.75;0.30;;;;;;;;;;5051757;28;20071;-62
2023/09/30 01:19:26;;;;;;;0.90;0.40;;;;;;;;;;5051185;28;20041;-62
2023/09/30 01:22:05;;;;;;;1.65;0.60;;;;;;;;;;5049548;28;20098;-62
2023/09/30 01:24:32;;;;;;;0.35;0.30;;;;;;;;;;5049226;28;20055;-62
2023/09/30 01:26:58;;;;;;;0.55;0.47;;;;;;;;;;5050429;28;20529;-62
2023/09/30 01:29:26;;;;;;;1.88;0.47;;;;;;;;;;5056009;28;20048;-62
2023/09/30 01:31:52;;;;;;;0.52;0.40;;;;;;;;;;5055335;28;20330;-62
2023/09/30 01:34:18;;;;;;;1.10;0.90;;;;;;;;;;5049418;28;20041;-63
2023/09/30 01:36:44;;;;;;;1.33;0.55;;;;;;;;;;5050232;28;20087;-62
2023/09/30 01:39:10;;;;;;;1.70;0.63;;;;;;;;;;5057151;28;20097;-62
2023/09/30 01:41:40;;;;;;;1.02;0.55;;;;;;;;;;5055546;28;20069;-62
2023/09/30 01:44:06;;;;;;;1.05;0.35;;;;;;;;;;5056744;28;20045;-62
2023/09/30 01:46:32;;;;;;;0.68;0.43;;;;;;;;;;5053825;28;20132;-62
2023/09/30 01:48:58;;;;;;;0.60;0.45;;;;;;;;;;5051077;28;20087;-62
2023/09/30 01:51:24;;;;;;;0.90;0.60;;;;;;;;;;5056081;28;20040;-62
2023/09/30 01:53:51;;;;;;;0.45;0.40;;;;;;;;;;5055553;28;20044;-62
2023/09/30 01:56:17;;;;;;;0.65;0.40;;;;;;;;;;5054557;28;20070;-62
2023/09/30 01:58:43;;;;;;;0.88;0.80;;;;;;;;;;5051316;28;20094;-62
2023/09/30 02:01:09;;;;;;;0.70;0.50;;;;;;;;;;5054351;28;20041;-62
2023/09/30 02:03:36;;;;;;;0.98;0.65;;;;;;;;;;5051599;28;20045;-62
2023/09/30 02:06:03;;;;;;;0.93;0.60;;;;;;;;;;5055163;28;20110;-62
2023/09/30 02:08:29;;;;;;;0.82;0.50;;;;;;;;;;5049276;28;20421;-62
2023/09/30 02:10:55;;;;;;;0.57;0.47;;;;;;;;;;5053464;28;20480;-62
2023/09/30 02:13:21;;;;;;;0.63;0.43;;;;;;;;;;5051400;28;20794;-62
2023/09/30 02:15:47;;;;;;;1.75;0.77;;;;;;;;;;5054153;28;20045;-62
2023/09/30 02:18:14;;;;;;;1.73;0.80;;;;;;;;;;5051305;28;20048;-62
2023/09/30 02:20:40;;;;;;;1.10;0.60;;;;;;;;;;5052626;28;20572;-62
2023/09/30 02:23:13;;;;;;;0.63;0.50;;;;;;;;;;5052891;28;20045;-62
2023/09/30 02:25:43;;;;;;;0.90;0.40;;;;;;;;;;5048112;28;20037;-62
2023/09/30 02:28:09;;;;;;;1.40;0.70;;;;;;;;;;5054829;28;20048;-62
2023/09/30 02:30:35;;;;;;;2.67;0.88;;;;;;;;;;5057811;28;20033;-62
2023/09/30 02:33:01;;;;;;;1.55;0.50;;;;;;;;;;5057970;28;20173;-62
2023/09/30 02:35:27;;;;;;;1.13;0.55;;;;;;;;;;5052731;28;20052;-62
2023/09/30 02:37:54;;;;;;;1.52;0.65;;;;;;;;;;5051901;28;20045;-62
2023/09/30 02:40:20;;;;;;;0.45;0.30;;;;;;;;;;5055364;28;20049;-63
2023/09/30 02:42:47;;;;;;;0.77;0.40;;;;;;;;;;5055960;28;20029;-63
2023/09/30 02:45:14;;;;;;;0.98;0.68;;;;;;;;;;5053992;28;20080;-63
2023/09/30 02:47:40;;;;;;;0.68;0.30;;;;;;;;;;5055175;28;20048;-63
2023/09/30 02:50:16;;;;;;;0.70;0.50;;;;;;;;;;5053227;28;20174;-63
2023/09/30 02:52:42;;;;;;;0.57;0.45;;;;;;;;;;5054411;28;20056;-63
2023/09/30 02:55:09;;;;;;;0.38;0.38;;;;;;;;;;5054191;28;20064;-63
2023/09/30 02:57:35;;;;;;;0.45;0.22;;;;;;;;;;5055201;28;20532;-63
2023/09/30 03:00:12;;;;;;;0.55;0.20;;;;;;;;;;5055560;28;20055;-63
2023/09/30 03:02:38;;;;;;;0.80;0.43;;;;;;;;;;5041901;28;20044;-63
2023/09/30 03:05:04;;;;;;;1.15;0.57;;;;;;;;;;5054610;28;20051;-63
2023/09/30 03:07:33;;;;;;;0.25;0.22;;;;;;;;;;5048656;28;20041;-63
2023/09/30 03:10:00;;;;;;;0.55;0.35;;;;;;;;;;5048353;28;21119;-63
2023/09/30 03:12:26;;;;;;;0.38;0.38;;;;;;;;;;5049398;28;20649;-63
2023/09/30 03:14:52;;;;;;;0.25;0.25;;;;;;;;;;5050611;28;20258;-63
2023/09/30 03:17:19;;;;;;;0.65;0.40;;;;;;;;;;5049533;28;20045;-63
2023/09/30 03:19:45;;;;;;;0.70;0.35;;;;;;;;;;5052239;28;20048;-63
2023/09/30 03:22:11;;;;;;;0.40;0.30;;;;;;;;;;5050723;28;20064;-63
2023/09/30 03:24:39;;;;;;;0.35;0.22;;;;;;;;;;5051085;28;20044;-63
2023/09/30 03:27:05;;;;;;;0.35;0.30;;;;;;;;;;5052433;28;20714;-63
2023/09/30 03:29:31;;;;;;;0.32;0.30;;;;;;;;;;5051467;28;20037;-63
2023/09/30 03:31:57;;;;;;;0.17;0.10;;;;;;;;;;5055027;28;20047;-63
2023/09/30 03:34:23;;;;;;;0.25;0.20;;;;;;;;;;5048620;28;20041;-63
2023/09/30 03:36:49;;;;;;;0.35;0.30;;;;;;;;;;5054062;28;20040;-63
2023/09/30 03:39:15;;;;;;;0.28;0.28;;;;;;;;;;5054404;28;20648;-63
2023/09/30 03:41:41;;;;;;;0.22;0.22;;;;;;;;;;5055700;28;20127;-63
2023/09/30 03:44:08;;;;;;;0.80;0.40;;;;;;;;;;5050845;28;20132;-63
2023/09/30 03:46:34;;;;;;;0.60;0.40;;;;;;;;;;5052341;28;20041;-63
2023/09/30 03:49:00;;;;;;;0.40;0.32;;;;;;;;;;5047012;28;20037;-63
2023/09/30 03:51:26;;;;;;;0.85;0.43;;;;;;;;;;5056580;28;20037;-63
2023/09/30 03:53:52;;;;;;;0.95;0.47;;;;;;;;;;5055310;28;20052;-63
2023/09/30 03:56:18;;;;;;;0.52;0.40;;;;;;;;;;5058545;28;20729;-63
2023/09/30 03:58:45;;;;;;;1.52;0.30;;;;;;;;;;5057325;28;20121;-63
2023/09/30 04:01:11;;;;;;;0.30;0.20;;;;;;;;;;5060213;28;20066;-63
2023/09/30 04:03:39;;;;;;;0.63;0.20;;;;;;;;;;5059529;28;20041;-63
2023/09/30 04:06:06;;;;;;;0.70;0.40;;;;;;;;;;5059262;28;20487;-63
2023/09/30 04:08:33;;;;;;;0.85;0.38;;;;;;;;;;5052841;28;20052;-63
2023/09/30 04:11:00;;;;;;;0.40;0.32;;;;;;;;;;5058017;28;20185;-63
2023/09/30 04:13:26;;;;;;;0.40;0.30;;;;;;;;;;5052260;28;20032;-63
2023/09/30 04:15:52;;;;;;;0.47;0.40;;;;;;;;;;5052432;28;20044;-63
2023/09/30 04:18:20;;;;;;;0.30;0.20;;;;;;;;;;5053975;28;21231;-63
2023/09/30 04:20:46;;;;;;;1.20;0.68;;;;;;;;;;5052059;28;20112;-63
2023/09/30 04:23:13;;;;;;;1.42;0.68;;;;;;;;;;5054354;28;20052;-63
2023/09/30 04:25:40;;;;;;;1.38;0.50;;;;;;;;;;5047870;28;20045;-63
2023/09/30 04:28:07;;;;;;;0.57;0.30;;;;;;;;;;5050329;28;20052;-63
2023/09/30 04:30:33;;;;;;;0.85;0.30;;;;;;;;;;5050925;28;20056;-63
2023/09/30 04:32:59;;;;;;;0.70;0.30;;;;;;;;;;5054856;28;20041;-63
2023/09/30 04:35:26;;;;;;;0.55;0.50;;;;;;;;;;5054142;28;20040;-63
2023/09/30 04:37:52;;;;;;;0.77;0.50;;;;;;;;;;5054045;28;20056;-63
2023/09/30 04:40:21;;;;;;;0.77;0.60;;;;;;;;;;5052225;28;21722;-63
2023/09/30 04:42:48;;;;;;;1.08;0.50;;;;;;;;;;5052734;28;20037;-63
2023/09/30 04:45:19;;;;;;;0.43;0.30;;;;;;;;;;5050573;28;20112;-63
2023/09/30 04:47:45;;;;;;;0.73;0.50;;;;;;;;;;5051257;28;20049;-63
2023/09/30 04:50:16;;;;;;;1.45;0.45;;;;;;;;;;5053003;28;20697;-63
2023/09/30 04:52:42;;;;;;;0.43;0.35;;;;;;;;;;5051622;28;20041;-63
2023/09/30 04:55:08;;;;;;;0.40;0.40;;;;;;;;;;5052893;28;20234;-63
2023/09/30 04:57:34;;;;;;;0.22;0.20;;;;;;;;;;5052469;28;20394;-63
2023/09/30 05:00:01;;;;;;;0.22;0.17;;;;;;;;;;5059458;28;20075;-63
2023/09/30 05:02:28;;;;;;;0.70;0.40;;;;;;;;;;5055879;28;20075;-63
2023/09/30 05:04:54;;;;;;;0.80;0.47;;;;;;;;;;5057997;28;20045;-63
2023/09/30 05:07:23;;;;;;;0.35;0.28;;;;;;;;;;5056473;28;20152;-63
2023/09/30 05:09:49;;;;;;;0.43;0.30;;;;;;;;;;5056510;28;20042;-63
2023/09/30 05:12:16;;;;;;;0.47;0.30;;;;;;;;;;5053373;28;20033;-63
2023/09/30 05:14:43;;;;;;;0.25;0.22;;;;;;;;;;5051680;28;20527;-63
2023/09/30 05:17:09;;;;;;;0.32;0.30;;;;;;;;;;5043342;28;20143;-63
2023/09/30 05:19:37;;;;;;;0.30;0.30;;;;;;;;;;5050531;28;20044;-63
2023/09/30 05:22:03;;;;;;;0.50;0.28;;;;;;;;;;5050568;28;20051;-63
2023/09/30 05:24:29;;;;;;;0.50;0.40;;;;;;;;;;5050968;28;20078;-63
2023/09/30 05:26:55;;;;;;;0.40;0.35;;;;;;;;;;5052122;28;20048;-63
2023/09/30 05:29:22;;;;;;;0.88;0.40;;;;;;;;;;5052011;28;20041;-63
2023/09/30 05:31:48;;;;;;;0.45;0.45;;;;;;;;;;5047837;28;20041;-63
2023/09/30 05:34:14;;;;;;;1.02;0.32;;;;;;;;;;5047793;28;20132;-63
2023/09/30 05:36:40;;;;;;;0.70;0.50;;;;;;;;;;5051354;28;20073;-63
2023/09/30 05:39:06;;;;;;;0.50;0.45;;;;;;;;;;5051425;28;20095;-63
2023/09/30 05:41:32;;;;;;;1.17;0.70;;;;;;;;;;5048705;28;20040;-63
2023/09/30 05:43:59;;;;;;;1.10;0.40;;;;;;;;;;5051761;28;20513;-63
2023/09/30 05:46:27;;;;;;;0.50;0.30;;;;;;;;;;5052714;28;21171;-63
2023/09/30 05:48:53;;;;;;;0.68;0.40;;;;;;;;;;5052786;28;20076;-64
2023/09/30 05:51:19;;;;;;;0.63;0.35;;;;;;;;;;5054520;28;20110;-63
2023/09/30 05:53:47;;;;;;;0.50;0.35;;;;;;;;;;5053545;28;20064;-63
2023/09/30 05:56:15;;;;;;;0.40;0.40;;;;;;;;;;5053404;28;20757;-63
2023/09/30 05:58:41;;;;;;;0.70;0.70;;;;;;;;;;5044139;28;20102;-63
2023/09/30 06:01:15;;;;;;;0.65;0.60;;;;;;;;;;5052784;28;20463;-63
2023/09/30 06:03:41;;;;;;;0.40;0.40;;;;;;;;;;5050877;28;20075;-63
2023/09/30 06:06:12;;;;;;;0.82;0.40;;;;;;;;;;5052468;28;20095;-63
2023/09/30 06:08:38;;;;;;;0.52;0.40;;;;;;;;;;5050631;28;20408;-63
2023/09/30 06:11:04;;;;;;;0.63;0.52;;;;;;;;;;5054397;28;20139;-63
2023/09/30 06:13:31;;;;;;;1.08;0.98;;;;;;;;;;5051040;28;20041;-63
2023/09/30 06:15:57;;;;;;;0.90;0.82;;;;;;;;;;5056509;28;20044;-63
2023/09/30 06:18:23;;;;;;;0.70;0.50;;;;;;;;;;5050898;28;20032;-63
2023/09/30 06:20:50;;;;;;;0.50;0.50;;;;;;;;;;5058549;28;20062;-63
2023/09/30 06:23:16;;;;;;;1.33;0.77;;;;;;;;;;5054813;28;20392;-63
2023/09/30 06:25:43;;;;;;;1.77;1.30;;;;;;;;;;5052633;28;20084;-63
2023/09/30 06:28:09;;;;;;;1.10;0.75;;;;;;;;;;5050180;28;20065;-63
2023/09/30 06:30:36;;;;;;;1.98;1.38;;;;;;;;;;5050353;28;20044;-63
2023/09/30 06:33:04;;;;;;;2.10;0.82;;;;;;;;;;5049009;28;20100;-63
2023/09/30 06:35:34;;;;;;;0.60;0.60;;;;;;;;;;5050418;28;20123;-63
2023/09/30 06:38:01;;;;;;;0.68;0.57;;;;;;;;;;5051910;28;20053;-63
2023/09/30 06:40:27;;;;;;;0.52;0.52;;;;;;;;;;5052987;28;20074;-63
2023/09/30 06:42:53;;;;;;;0.93;0.75;;;;;;;;;;5052268;28;20045;-63
2023/09/30 06:45:21;;;;;;;0.93;0.50;;;;;;;;;;5047668;28;20132;-63
2023/09/30 06:47:48;;;;;;;0.52;0.50;;;;;;;;;;5048925;28;20045;-63
2023/09/30 06:50:16;;;;;;;1.05;0.80;;;;;;;;;;5049783;28;20084;-63
2023/09/30 06:52:45;;;;;;;0.45;0.45;;;;;;;;;;5051698;28;20405;-63
2023/09/30 06:55:13;;;;;;;0.40;0.40;;;;;;;;;;5048388;28;20061;-63
2023/09/30 06:57:40;;;;;;;0.57;0.57;;;;;;;;;;5050278;28;20115;-63
2023/09/30 07:00:11;;;;;;;1.83;0.90;;;;;;;;;;5051351;28;20102;-63
2023/09/30 07:02:38;;;;;;;0.57;0.57;;;;;;;;;;5052384;28;20064;-63
2023/09/30 07:05:13;;;;;;;0.43;0.40;;;;;;;;;;5049877;28;20392;-63
2023/09/30 07:07:40;;;;;;;0.93;0.70;;;;;;;;;;5050576;28;20041;-63
2023/09/30 07:10:07;;;;;;;0.77;0.50;;;;;;;;;;5050766;28;20135;-64
2023/09/30 07:12:35;;;;;;;0.63;0.57;;;;;;;;;;5051076;28;20063;-64
2023/09/30 07:15:02;;;;;;;0.63;0.63;;;;;;;;;;5053773;28;20040;-64
2023/09/30 07:17:28;;;;;;;0.70;0.60;;;;;;;;;;5051097;28;20498;-63
2023/09/30 07:19:54;;;;;;;0.90;0.80;;;;;;;;;;5052105;28;20045;-63
2023/09/30 07:22:20;;;;;;;0.68;0.50;;;;;;;;;;5054563;28;20086;-63
2023/09/30 07:24:46;;;;;;;0.43;0.43;;;;;;;;;;5052955;28;20489;-63
2023/09/30 07:27:12;;;;;;;0.95;0.60;;;;;;;;;;5054192;28;20114;-64
2023/09/30 07:29:38;;;;;;;0.82;0.43;;;;;;;;;;5056930;28;20444;-63
2023/09/30 07:32:04;;;;;;;0.40;0.40;;;;;;;;;;5053587;28;20401;-63
2023/09/30 07:34:30;;;;;;;1.50;0.90;;;;;;;;;;5054361;28;20075;-63
2023/09/30 07:36:56;;;;;;;2.10;0.93;;;;;;;;;;5052070;28;20076;-63
2023/09/30 07:39:22;;;;;;;3.72;1.20;;;;;;;;;;5054259;28;20051;-63
2023/09/30 07:41:48;;;;;;;2.58;1.20;;;;;;;;;;5055642;28;20064;-63
2023/09/30 07:44:15;;;;;;;1.77;0.90;;;;;;;;;;5055477;28;20052;-64
2023/09/30 07:46:41;;;;;;;1.15;1.00;;;;;;;;;;5054162;28;20552;-64
2023/09/30 07:49:08;;;;;;;1.10;0.80;;;;;;;;;;5054851;28;20127;-64
2023/09/30 07:51:35;;;;;;;2.67;1.00;;;;;;;;;;5053676;28;20047;-66
2023/09/30 07:54:01;;;;;;;1.60;1.20;;;;;;;;;;5056592;28;20451;-70
2023/09/30 07:56:27;;;;;;;2.53;2.03;;;;;;;;;;5048647;28;20590;-60
2023/09/30 07:58:53;;;;;;;3.33;1.83;;;;;;;;;;5048692;28;20613;-68
2023/09/30 08:01:19;;;;;;;2.65;1.30;;;;;;;;;;5046454;28;20045;-67
2023/09/30 08:03:46;;;;;;;2.15;1.40;;;;;;;;;;5047123;28;20397;-65
2023/09/30 08:06:12;;;;;;;5.53;2.30;;;;;;;;;;5048652;28;20051;-66
2023/09/30 08:08:38;;;;;;;2.70;1.70;;;;;;;;;;5053931;28;20044;-65
2023/09/30 08:11:05;;;;;;;2.83;1.60;;;;;;;;;;5053017;28;20417;-66
2023/09/30 08:13:32;;;;;;;3.15;1.42;;;;;;;;;;5057229;28;20040;-65
2023/09/30 08:15:58;;;;;;;3.03;1.30;;;;;;;;;;5048531;28;20957;-65
2023/09/30 08:18:24;;;;;;;2.92;1.73;;;;;;;;;;5052897;28;20102;-65
2023/09/30 08:20:50;;;;;;;1.77;1.65;;;;;;;;;;5048308;28;20110;-65
2023/09/30 08:23:16;;;;;;;2.85;1.17;;;;;;;;;;5050347;28;20126;-65
2023/09/30 08:25:42;;;;;;;4.03;2.45;;;;;;;;;;5050332;28;20128;-65
2023/09/30 08:28:09;;;;;;;2.47;1.80;;;;;;;;;;5047215;28;20056;-64
2023/09/30 08:30:35;;;;;;;3.60;2.28;;;;;;;;;;5048842;28;20059;-64
2023/09/30 08:33:03;;;;;;;4.25;2.20;;;;;;;;;;5053799;28;20532;-65
2023/09/30 08:35:30;;;;;;;2.10;1.90;;;;;;;;;;5052346;28;20163;-65
2023/09/30 08:37:56;;;;;;;2.22;1.27;;;;;;;;;;5057590;28;20032;-65
2023/09/30 08:40:22;;;;;;;2.13;1.30;;;;;;;;;;5046949;28;20661;-65
2023/09/30 08:42:52;;;;;;;1.15;0.90;;;;;;;;;;5045193;28;20061;-65
2023/09/30 08:45:18;;;;;;;2.03;1.05;;;;;;;;;;5046911;28;20474;-65
2023/09/30 08:47:46;;;;;;;1.33;0.60;;;;;;;;;;5053194;28;20086;-66
2023/09/30 08:50:13;;;;;;;0.95;0.50;;;;;;;;;;5054800;28;20084;-65
2023/09/30 08:52:40;;;;;;;2.30;0.90;;;;;;;;;;5050806;28;20389;-66
2023/09/30 08:55:10;;;;;;;2.80;1.30;;;;;;;;;;5052330;28;20063;-65
2023/09/30 08:57:40;;;;;;;1.95;1.17;;;;;;;;;;5048039;28;20078;-65
2023/09/30 09:00:07;;;;;;;2.25;1.27;;;;;;;;;;5052641;28;20076;-64
2023/09/30 09:02:37;;;;;;;2.95;1.20;;;;;;;;;;5050673;28;20129;-65
2023/09/30 09:05:03;;;;;;;4.32;1.27;;;;;;;;;;5055930;28;20083;-66
2023/09/30 09:07:30;;;;;;;3.33;1.73;;;;;;;;;;5052022;28;20067;-65
2023/09/30 09:10:06;;;;;;;4.18;1.35;;;;;;;;;;5054753;28;20114;-65
2023/09/30 09:12:36;;;;;;;3.80;1.67;;;;;;;;;;5046803;28;20069;-64
2023/09/30 09:15:03;;;;;;;1.25;1.00;;;;;;;;;;5044249;28;20075;-64
2023/09/30 09:17:42;;;;;;;2.65;1.35;;;;;;;;;;5042405;28;20060;-64
2023/09/30 09:20:13;;;;;;;2.20;1.55;;;;;;;;;;5042438;28;20128;-65
2023/09/30 09:22:43;;;;;;;3.83;1.37;;;;;;;;;;5047581;28;20032;-64
2023/09/30 09:25:09;;;;;;;4.18;1.20;;;;;;;;;;5051299;28;20052;-65
2023/09/30 09:27:36;;;;;;;1.73;1.35;;;;;;;;;;5050890;28;20541;-65
2023/09/30 09:30:20;;;;;;;1.73;1.00;;;;;;;;;;5054804;28;20044;-65
2023/09/30 09:32:53;;;;;;;1.98;1.45;;;;;;;;;;5048626;28;20501;-64
2023/09/30 09:35:21;;;;;;;1.98;1.30;;;;;;;;;;5050282;28;20049;-64
2023/09/30 09:37:57;;;;;;;3.38;1.25;;;;;;;;;;5049069;28;20098;-65
2023/09/30 09:40:26;;;;;;;1.67;0.80;;;;;;;;;;5050231;28;20063;-65
2023/09/30 09:42:54;;;;;;;1.85;0.80;;;;;;;;;;5050362;28;20750;-65
2023/09/30 09:45:24;;;;;;;1.90;0.85;;;;;;;;;;5045945;28;20040;-65
2023/09/30 09:47:51;;;;;;;2.42;0.85;;;;;;;;;;5040551;28;20045;-65
2023/09/30 09:50:18;;;;;;;2.85;1.45;;;;;;;;;;5052361;28;20048;-66
2023/09/30 09:52:45;;;;;;;2.47;1.20;;;;;;;;;;5047347;28;20493;-66
2023/09/30 09:55:12;;;;;;;1.52;0.90;;;;;;;;;;5051830;28;20080;-65
2023/09/30 09:57:38;;;;;;;3.05;0.90;;;;;;;;;;5049363;28;20155;-65
2023/09/30 10:00:13;;;;;;;2.10;0.60;;;;;;;;;;5046354;28;20535;-64
2023/09/30 10:02:40;;;;;;;1.85;0.90;;;;;;;;;;5056203;28;20044;-64
2023/09/30 10:05:07;;;;;;;2.00;0.68;;;;;;;;;;5052271;28;20045;-64
2023/09/30 10:07:51;;;;;;;1.13;0.60;;;;;;;;;;5043942;28;20077;-64
2023/09/30 10:10:19;;;;;;;1.27;0.40;;;;;;;;;;5044527;28;20048;-65
2023/09/30 10:12:46;;;;;;;0.95;0.63;;;;;;;;;;5052000;28;20079;-65
2023/09/30 10:15:24;;;;;;;1.02;0.65;;;;;;;;;;5052106;28;20631;-65
2023/09/30 10:17:57;;;;;;;1.08;0.50;;;;;;;;;;5052093;28;20106;-64
2023/09/30 10:20:30;;;;;;;1.20;0.40;;;;;;;;;;5050550;28;20052;-64
2023/09/30 10:23:15;;;;;;;0.85;0.50;;;;;;;;;;5046957;28;20044;-64
2023/09/30 10:25:46;;;;;;;1.42;0.45;;;;;;;;;;5049126;28;20056;-64
2023/09/30 10:28:31;;;;;;;0.50;0.30;;;;;;;;;;5048734;28;20512;-64
2023/09/30 10:31:12;;;;;;;0.50;0.30;;;;;;;;;;5042298;28;20228;-64
2023/09/30 10:34:02;;;;;;;0.80;0.40;;;;;;;;;;5041147;28;20512;-64
2023/09/30 10:36:41;;;;;;;0.68;0.32;;;;;;;;;;5038201;28;20057;-64
2023/09/30 10:39:13;;;;;;;1.00;0.30;;;;;;;;;;5048429;28;20420;-64
2023/09/30 10:41:39;;;;;;;0.75;0.35;;;;;;;;;;5041243;28;20095;-64
2023/09/30 10:44:27;;;;;;;0.85;0.50;;;;;;;;;;5043493;28;20041;-65
2023/09/30 10:46:54;;;;;;;0.40;0.40;;;;;;;;;;5046919;28;20520;-65
2023/09/30 10:49:23;;;;;;;1.15;0.60;;;;;;;;;;5043559;28;20045;-65
2023/09/30 10:51:52;;;;;;;2.47;0.50;;;;;;;;;;5044664;28;20144;-65
2023/09/30 10:54:29;;;;;;;1.80;0.63;;;;;;;;;;5044994;28;20135;-65
2023/09/30 10:56:58;;;;;;;0.57;0.25;;;;;;;;;;5042162;28;20053;-65
2023/09/30 10:59:25;;;;;;;1.67;0.40;;;;;;;;;;5044758;28;20055;-65
2023/09/30 11:01:53;;;;;;;0.75;0.30;;;;;;;;;;5046923;28;20102;-65
2023/09/30 11:04:19;;;;;;;0.82;0.20;;;;;;;;;;5044081;28;20182;-65
2023/09/30 11:06:46;;;;;;;0.30;0.28;;;;;;;;;;5052924;28;20037;-65
2023/09/30 11:09:19;;;;;;;0.88;0.22;;;;;;;;;;5047656;28;20044;-65
2023/09/30 11:11:49;;;;;;;0.60;0.20;;;;;;;;;;5048375;28;20452;-66
2023/09/30 11:14:21;;;;;;;0.20;0.20;;;;;;;;;;5044223;28;20451;-65
2023/09/30 11:16:48;;;;;;;0.30;0.10;;;;;;;;;;5048973;28;20140;-65
2023/09/30 11:19:20;;;;;;;2.42;0.52;;;;;;;;;;5045268;28;20543;-65
2023/09/30 11:21:47;;;;;;;0.63;0.30;;;;;;;;;;5055630;28;20044;-65
2023/09/30 11:24:14;;;;;;;0.40;0.10;;;;;;;;;;5049269;28;20812;-65
2023/09/30 11:26:43;;;;;;;1.15;0.45;;;;;;;;;;5056301;28;20136;-65
2023/09/30 11:29:11;;;;;;;2.33;0.55;;;;;;;;;;5052219;28;20051;-66
2023/09/30 11:31:40;;;;;;;1.88;0.40;;;;;;;;;;5044156;28;20068;-66
2023/09/30 11:34:07;;;;;;;1.58;0.70;;;;;;;;;;5052244;28;20083;-65
2023/09/30 11:36:37;;;;;;;1.33;0.70;;;;;;;;;;5050901;28;20063;-67
2023/09/30 11:39:03;;;;;;;2.22;0.80;;;;;;;;;;5047083;28;20580;-65
2023/09/30 11:41:33;;;;;;;1.13;0.50;;;;;;;;;;5047354;28;20505;-65
2023/09/30 11:44:00;;;;;;;2.17;0.60;;;;;;;;;;5047173;28;20044;-66
2023/09/30 11:46:27;;;;;;;1.75;0.60;;;;;;;;;;5042789;28;20048;-66
2023/09/30 11:49:01;;;;;;;3.05;0.80;;;;;;;;;;5048637;28;20044;-66
2023/09/30 11:51:28;;;;;;;2.05;0.63;;;;;;;;;;5041916;28;20049;-66
2023/09/30 11:53:54;;;;;;;1.95;0.70;;;;;;;;;;5046668;28;20053;-65
2023/09/30 11:56:22;;;;;;;1.48;0.50;;;;;;;;;;5048435;28;20064;-66
2023/09/30 11:58:50;;;;;;;1.05;0.35;;;;;;;;;;5055083;28;20037;-66
2023/09/30 12:01:16;;;;;;;2.38;0.60;;;;;;;;;;5050810;28;20048;-65
2023/09/30 12:03:42;;;;;;;1.52;0.55;;;;;;;;;;5054493;28;20084;-65
2023/09/30 12:06:13;;;;;;;2.53;0.75;;;;;;;;;;5055328;28;20052;-65
2023/09/30 12:08:39;;;;;;;2.85;0.30;;;;;;;;;;5050116;28;20041;-65
2023/09/30 12:11:05;;;;;;;1.90;0.70;;;;;;;;;;5050437;28;20047;-65
2023/09/30 12:13:31;;;;;;;2.08;0.55;;;;;;;;;;5051575;28;20079;-65
2023/09/30 12:15:57;;;;;;;3.40;0.80;;;;;;;;;;5055302;28;20573;-65
2023/09/30 12:18:24;;;;;;;2.40;0.70;;;;;;;;;;5047521;28;20045;-65
2023/09/30 12:20:53;;;;;;;2.75;0.80;;;;;;;;;;5052703;28;20043;-65
2023/09/30 12:23:20;;;;;;;1.40;0.40;;;;;;;;;;5051665;28;20351;-65
2023/09/30 12:25:46;;;;;;;0.32;0.20;;;;;;;;;;5048393;28;20033;-65
2023/09/30 12:28:14;;;;;;;1.42;0.43;;;;;;;;;;5051426;28;20045;-65
2023/09/30 12:30:40;;;;;;;0.43;0.20;;;;;;;;;;5045315;28;20103;-65
2023/09/30 12:33:07;;;;;;;0.68;0.32;;;;;;;;;;5043529;28;20054;-65
2023/09/30 12:35:33;;;;;;;0.55;0.40;;;;;;;;;;5052377;28;20154;-65
2023/09/30 12:37:59;;;;;;;0.93;0.43;;;;;;;;;;5044919;28;20103;-65
2023/09/30 12:40:25;;;;;;;0.50;0.50;;;;;;;;;;5052500;28;20501;-65
2023/09/30 12:42:52;;;;;;;0.90;0.52;;;;;;;;;;5044396;28;20045;-65
2023/09/30 12:45:18;;;;;;;1.17;0.60;;;;;;;;;;5042620;28;20052;-65
2023/09/30 12:47:44;;;;;;;0.68;0.45;;;;;;;;;;5047417;28;20049;-65
2023/09/30 12:50:10;;;;;;;0.85;0.43;;;;;;;;;;5045808;28;20464;-65
2023/09/30 12:52:38;;;;;;;0.50;0.20;;;;;;;;;;5047848;28;20033;-65
2023/09/30 12:55:04;;;;;;;0.50;0.35;;;;;;;;;;5047547;28;20044;-65
2023/09/30 12:57:31;;;;;;;0.40;0.30;;;;;;;;;;5038693;28;20052;-65
2023/09/30 12:59:57;;;;;;;0.43;0.35;;;;;;;;;;5047888;28;20510;-65
2023/09/30 13:02:23;;;;;;;0.38;0.28;;;;;;;;;;5047027;28;20052;-65
2023/09/30 13:04:49;;;;;;;0.98;0.28;;;;;;;;;;5047223;28;20374;-65
2023/09/30 13:07:15;;;;;;;0.88;0.30;;;;;;;;;;5047488;28;20040;-65
2023/09/30 13:09:42;;;;;;;0.55;0.43;;;;;;;;;;5052482;28;20056;-65
2023/09/30 13:12:08;;;;;;;1.42;0.38;;;;;;;;;;5050719;28;20147;-65
2023/09/30 13:14:35;;;;;;;2.70;0.90;;;;;;;;;;5047318;28;20444;-65
2023/09/30 13:17:01;;;;;;;0.90;0.60;;;;;;;;;;5046320;28;20047;-65
2023/09/30 13:19:27;;;;;;;1.77;0.65;;;;;;;;;;5049764;28;20044;-65
2023/09/30 13:21:53;;;;;;;0.45;0.40;;;;;;;;;;5045989;28;20073;-65
2023/09/30 13:24:19;;;;;;;0.85;0.38;;;;;;;;;;5046168;28;20063;-65
2023/09/30 13:26:46;;;;;;;1.70;0.80;;;;;;;;;;5054282;28;20033;-65
2023/09/30 13:29:13;;;;;;;0.90;0.20;;;;;;;;;;5053134;28;20119;-65
2023/09/30 13:31:39;;;;;;;0.68;0.40;;;;;;;;;;5046258;28;20054;-65
2023/09/30 13:34:05;;;;;;;1.33;0.35;;;;;;;;;;5055278;28;20041;-65
2023/09/30 13:36:31;;;;;;;0.40;0.30;;;;;;;;;;5046811;28;20124;-65
2023/09/30 13:38:57;;;;;;;0.60;0.40;;;;;;;;;;5046288;28;20504;-65
2023/09/30 13:41:23;;;;;;;0.10;0.10;;;;;;;;;;5046533;28;20090;-65
2023/09/30 13:43:49;;;;;;;0.30;0.17;;;;;;;;;;5046548;28;20091;-65
2023/09/30 13:46:16;;;;;;;0.52;0.40;;;;;;;;;;5045485;28;20040;-65
2023/09/30 13:48:42;;;;;;;0.57;0.25;;;;;;;;;;5048295;28;20049;-65
2023/09/30 13:51:09;;;;;;;0.73;0.30;;;;;;;;;;5045225;28;20098;-65
2023/09/30 13:53:35;;;;;;;0.50;0.40;;;;;;;;;;5047573;28;20069;-65
2023/09/30 13:56:03;;;;;;;0.35;0.30;;;;;;;;;;5051638;28;20064;-65
2023/09/30 13:58:30;;;;;;;0.98;0.47;;;;;;;;;;5050623;28;20485;-65
2023/09/30 14:00:57;;;;;;;0.25;0.20;;;;;;;;;;5046080;28;20443;-65
2023/09/30 14:03:26;;;;;;;0.57;0.25;;;;;;;;;;5044656;28;20053;-65
2023/09/30 14:05:53;;;;;;;0.40;0.10;;;;;;;;;;5049843;28;20095;-65
2023/09/30 14:08:19;;;;;;;0.20;0.20;;;;;;;;;;5045781;28;20043;-65
2023/09/30 14:10:45;;;;;;;0.20;0.20;;;;;;;;;;5046343;28;20040;-65
2023/09/30 14:13:11;;;;;;;0.73;0.32;;;;;;;;;;5046962;28;20528;-65
2023/09/30 14:15:37;;;;;;;0.20;0.17;;;;;;;;;;5049912;28;20040;-65
2023/09/30 14:18:04;;;;;;;0.10;0.10;;;;;;;;;;5046671;28;20087;-65
2023/09/30 14:20:30;;;;;;;0.60;0.28;;;;;;;;;;5045578;28;20052;-65
2023/09/30 14:22:56;;;;;;;0.40;0.20;;;;;;;;;;5045860;28;20485;-65
2023/09/30 14:25:22;;;;;;;0.13;0.13;;;;;;;;;;5046965;28;20052;-65
2023/09/30 14:27:49;;;;;;;0.50;0.20;;;;;;;;;;5048870;28;20041;-65
2023/09/30 14:30:15;;;;;;;1.85;0.22;;;;;;;;;;5047452;28;20848;-65
2023/09/30 14:32:42;;;;;;;0.60;0.20;;;;;;;;;;5045415;28;20037;-65
2023/09/30 14:35:09;;;;;;;0.15;0.10;;;;;;;;;;5044506;28;20556;-65
2023/09/30 14:37:35;;;;;;;0.20;0.20;;;;;;;;;;5046198;28;20036;-65
2023/09/30 14:40:05;;;;;;;0.40;0.20;;;;;;;;;;5045811;28;20045;-65
2023/09/30 14:42:31;;;;;;;1.52;0.43;;;;;;;;;;5043529;28;20045;-65
2023/09/30 14:44:57;;;;;;;1.50;0.70;;;;;;;;;;5050218;28;20496;-65